sensor_id;sensor_type;location;lat;lon;timestamp;pressure;altitude;pressure_sealevel;temperature;humidity
44313;BME280;38833;51.142;-0.974;2023-08-17T00:01:44;100525.84;;;24.53;38.67
44313;BME280;38833;51.142;-0.974;2023-08-17T00:04:17;100524.28;;;24.71;38.79
44313;BME280;38833;51.142;-0.974;2023-08-17T00:06:51;100522.09;;;24.68;38.74
44313;BME280;38833;51.142;-0.974;2023-08-17T00:09:24;100527.06;;;24.71;38.71
44313;BME280;38833;51.142;-0.974;2023-08-17T00:11:57;100524.35;;;24.43;38.63
44313;BME280;38833;51.142;-0.974;2023-08-17T00:14:31;100520.75;;;24.70;38.59
44313;BME280;38833;51.142;-0.974;2023-08-17T00:17:05;100518.60;;;24.55;38.79
44313;BME280;38833;51.142;-0.974;2023-08-17T00:19:38;100515.07;;;24.32;38.73
44313;BME280;38833;51.142;-0.974;2023-08-17T00:22:12;100515.38;;;24.34;38.64
44313;BME280;38833;51.142;-0.974;2023-08-17T00:24:45;100516.20;;;24.58;38.60
44313;BME280;38833;51.142;-0.974;2023-08-17T00:27:19;100512.25;;;24.63;38.50
44313;BME280;38833;51.142;-0.974;2023-08-17T00:29:52;100510.89;;;24.52;38.57
44313;BME280;38833;51.142;-0.974;2023-08-17T00:32:26;100506.56;;;24.47;38.59
44313;BME280;38833;51.142;-0.974;2023-08-17T00:34:59;100505.84;;;24.45;38.59
44313;BME280;38833;51.142;-0.974;2023-08-17T00:37:32;100509.47;;;24.30;38.72
44313;BME280;38833;51.142;-0.974;2023-08-17T00:40:07;100514.67;;;24.02;38.69
44313;BME280;38833;51.142;-0.974;2023-08-17T00:42:40;100514.25;;;24.19;38.77
44313;BME280;38833;51.142;-0.974;2023-08-17T00:45:14;100514.04;;;24.13;38.81
44313;BME280;38833;51.142;-0.974;2023-08-17T00:47:47;100514.06;;;24.29;38.52
44313;BME280;38833;51.142;-0.974;2023-08-17T00:50:21;100508.60;;;24.32;38.45
44313;BME280;38833;51.142;-0.974;2023-08-17T00:52:56;100503.60;;;24.33;38.35
44313;BME280;38833;51.142;-0.974;2023-08-17T00:55:30;100502.09;;;24.53;38.04
44313;BME280;38833;51.142;-0.974;2023-08-17T00:58:03;100499.06;;;24.33;38.30
44313;BME280;38833;51.142;-0.974;2023-08-17T01:00:37;100502.17;;;24.22;38.43
44313;BME280;38833;51.142;-0.974;2023-08-17T01:03:10;100502.99;;;23.96;38.42
44313;BME280;38833;51.142;-0.974;2023-08-17T01:05:44;100504.04;;;24.55;38.25
44313;BME280;38833;51.142;-0.974;2023-08-17T01:08:17;100499.92;;;24.20;38.41
44313;BME280;38833;51.142;-0.974;2023-08-17T01:10:57;100496.90;;;24.14;38.45
44313;BME280;38833;51.142;-0.974;2023-08-17T01:13:38;100498.62;;;24.16;38.40
44313;BME280;38833;51.142;-0.974;2023-08-17T01:16:22;100499.87;;;24.32;38.44
44313;BME280;38833;51.142;-0.974;2023-08-17T01:18:58;100500.91;;;24.29;38.47
44313;BME280;38833;51.142;-0.974;2023-08-17T01:21:41;100503.18;;;24.18;38.31
44313;BME280;38833;51.142;-0.974;2023-08-17T01:24:15;100500.75;;;24.06;38.42
44313;BME280;38833;51.142;-0.974;2023-08-17T01:26:48;100497.18;;;24.01;38.51
44313;BME280;38833;51.142;-0.974;2023-08-17T01:29:22;100489.25;;;24.07;38.42
44313;BME280;38833;51.142;-0.974;2023-08-17T01:32:02;100482.04;;;24.16;38.24
44313;BME280;38833;51.142;-0.974;2023-08-17T01:34:40;100480.00;;;24.11;38.32
44313;BME280;38833;51.142;-0.974;2023-08-17T01:37:19;100480.97;;;24.22;38.11
44313;BME280;38833;51.142;-0.974;2023-08-17T01:39:56;100475.84;;;24.05;38.32
44313;BME280;38833;51.142;-0.974;2023-08-17T01:42:30;100475.57;;;24.13;38.18
44313;BME280;38833;51.142;-0.974;2023-08-17T01:45:06;100476.35;;;24.15;38.17
44313;BME280;38833;51.142;-0.974;2023-08-17T01:47:39;100475.35;;;24.21;38.09
44313;BME280;38833;51.142;-0.974;2023-08-17T01:50:12;100476.84;;;24.32;38.54
44313;BME280;38833;51.142;-0.974;2023-08-17T01:52:46;100480.47;;;24.05;38.28
44313;BME280;38833;51.142;-0.974;2023-08-17T01:55:21;100479.45;;;24.02;38.29
44313;BME280;38833;51.142;-0.974;2023-08-17T01:57:55;100477.16;;;23.76;38.65
44313;BME280;38833;51.142;-0.974;2023-08-17T02:00:28;100480.95;;;24.03;38.30
44313;BME280;38833;51.142;-0.974;2023-08-17T02:03:01;100489.38;;;23.83;38.58
44313;BME280;38833;51.142;-0.974;2023-08-17T02:05:35;100493.02;;;23.94;38.44
44313;BME280;38833;51.142;-0.974;2023-08-17T02:08:08;100490.47;;;23.94;38.49
44313;BME280;38833;51.142;-0.974;2023-08-17T02:10:42;100488.08;;;24.19;38.49
44313;BME280;38833;51.142;-0.974;2023-08-17T02:13:16;100485.06;;;24.44;38.48
44313;BME280;38833;51.142;-0.974;2023-08-17T02:15:49;100484.96;;;23.93;38.66
44313;BME280;38833;51.142;-0.974;2023-08-17T02:18:23;100478.64;;;23.90;38.72
44313;BME280;38833;51.142;-0.974;2023-08-17T02:20:56;100477.13;;;24.04;38.59
44313;BME280;38833;51.142;-0.974;2023-08-17T02:23:29;100482.01;;;24.16;38.77
44313;BME280;38833;51.142;-0.974;2023-08-17T02:26:03;100481.70;;;24.11;38.59
44313;BME280;38833;51.142;-0.974;2023-08-17T02:28:36;100481.51;;;23.94;39.17
44313;BME280;38833;51.142;-0.974;2023-08-17T02:31:10;100480.15;;;23.94;38.91
44313;BME280;38833;51.142;-0.974;2023-08-17T02:33:43;100478.84;;;23.76;39.16
44313;BME280;38833;51.142;-0.974;2023-08-17T02:36:16;100481.02;;;23.79;39.12
44313;BME280;38833;51.142;-0.974;2023-08-17T02:38:50;100478.12;;;23.90;39.00
44313;BME280;38833;51.142;-0.974;2023-08-17T02:41:23;100477.60;;;24.31;39.11
44313;BME280;38833;51.142;-0.974;2023-08-17T02:43:56;100477.48;;;23.91;39.03
44313;BME280;38833;51.142;-0.974;2023-08-17T02:46:30;100477.76;;;24.10;39.13
44313;BME280;38833;51.142;-0.974;2023-08-17T02:49:04;100478.04;;;23.96;39.03
44313;BME280;38833;51.142;-0.974;2023-08-17T02:51:37;100479.81;;;23.77;39.35
44313;BME280;38833;51.142;-0.974;2023-08-17T02:54:11;100480.81;;;23.95;39.09
44313;BME280;38833;51.142;-0.974;2023-08-17T02:56:44;100477.86;;;24.07;38.95
44313;BME280;38833;51.142;-0.974;2023-08-17T02:59:17;100475.49;;;23.82;39.35
44313;BME280;38833;51.142;-0.974;2023-08-17T03:01:53;100473.57;;;23.92;39.24
44313;BME280;38833;51.142;-0.974;2023-08-17T03:04:26;100476.64;;;23.87;39.36
44313;BME280;38833;51.142;-0.974;2023-08-17T03:06:59;100476.48;;;23.82;39.39
44313;BME280;38833;51.142;-0.974;2023-08-17T03:09:33;100475.64;;;24.03;39.47
44313;BME280;38833;51.142;-0.974;2023-08-17T03:12:06;100481.00;;;23.84;39.40
44313;BME280;38833;51.142;-0.974;2023-08-17T03:14:40;100485.87;;;23.82;39.46
44313;BME280;38833;51.142;-0.974;2023-08-17T03:17:13;100484.15;;;23.77;39.54
44313;BME280;38833;51.142;-0.974;2023-08-17T03:19:46;100480.49;;;23.84;39.48
44313;BME280;38833;51.142;-0.974;2023-08-17T03:22:20;100476.46;;;24.13;39.37
44313;BME280;38833;51.142;-0.974;2023-08-17T03:24:55;100476.39;;;23.89;39.45
44313;BME280;38833;51.142;-0.974;2023-08-17T03:27:28;100476.09;;;23.88;39.48
44313;BME280;38833;51.142;-0.974;2023-08-17T03:30:02;100477.40;;;24.02;39.29
44313;BME280;38833;51.142;-0.974;2023-08-17T03:32:36;100479.71;;;24.04;39.30
44313;BME280;38833;51.142;-0.974;2023-08-17T03:35:09;100478.41;;;24.01;39.68
44313;BME280;38833;51.142;-0.974;2023-08-17T03:37:42;100476.26;;;23.87;39.58
44313;BME280;38833;51.142;-0.974;2023-08-17T03:40:16;100475.92;;;23.82;39.69
44313;BME280;38833;51.142;-0.974;2023-08-17T03:42:49;100473.69;;;23.78;39.74
44313;BME280;38833;51.142;-0.974;2023-08-17T03:45:22;100470.13;;;23.94;39.55
44313;BME280;38833;51.142;-0.974;2023-08-17T03:47:56;100473.60;;;24.45;39.44
44313;BME280;38833;51.142;-0.974;2023-08-17T03:50:30;100478.24;;;23.83;39.71
44313;BME280;38833;51.142;-0.974;2023-08-17T03:53:03;100479.31;;;24.15;39.60
44313;BME280;38833;51.142;-0.974;2023-08-17T03:55:37;100479.64;;;24.10;39.71
44313;BME280;38833;51.142;-0.974;2023-08-17T03:58:10;100482.16;;;23.91;39.67
44313;BME280;38833;51.142;-0.974;2023-08-17T04:00:49;100484.45;;;24.01;39.89
44313;BME280;38833;51.142;-0.974;2023-08-17T04:03:23;100481.06;;;23.91;40.02
44313;BME280;38833;51.142;-0.974;2023-08-17T04:05:56;100479.40;;;24.11;39.81
44313;BME280;38833;51.142;-0.974;2023-08-17T04:08:30;100478.36;;;23.74;39.97
44313;BME280;38833;51.142;-0.974;2023-08-17T04:11:03;100476.90;;;24.38;39.74
44313;BME280;38833;51.142;-0.974;2023-08-17T04:13:37;100477.54;;;23.74;40.01
44313;BME280;38833;51.142;-0.974;2023-08-17T04:16:10;100474.20;;;23.80;39.93
44313;BME280;38833;51.142;-0.974;2023-08-17T04:18:43;100467.79;;;24.08;39.89
44313;BME280;38833;51.142;-0.974;2023-08-17T04:21:17;100459.69;;;24.25;39.93
44313;BME280;38833;51.142;-0.974;2023-08-17T04:23:50;100455.58;;;23.72;40.06
44313;BME280;38833;51.142;-0.974;2023-08-17T04:26:23;100451.74;;;24.14;40.08
44313;BME280;38833;51.142;-0.974;2023-08-17T04:28:57;100449.54;;;23.62;40.21
44313;BME280;38833;51.142;-0.974;2023-08-17T04:31:31;100454.30;;;24.16;40.21
44313;BME280;38833;51.142;-0.974;2023-08-17T04:34:04;100458.80;;;23.57;40.37
44313;BME280;38833;51.142;-0.974;2023-08-17T04:36:38;100459.82;;;23.73;40.10
44313;BME280;38833;51.142;-0.974;2023-08-17T04:39:11;100459.63;;;23.83;39.98
44313;BME280;38833;51.142;-0.974;2023-08-17T04:41:44;100454.59;;;24.11;39.92
44313;BME280;38833;51.142;-0.974;2023-08-17T04:44:18;100453.99;;;23.84;40.31
44313;BME280;38833;51.142;-0.974;2023-08-17T04:46:51;100454.45;;;23.66;40.24
44313;BME280;38833;51.142;-0.974;2023-08-17T04:49:24;100452.58;;;23.86;39.98
44313;BME280;38833;51.142;-0.974;2023-08-17T04:51:58;100447.34;;;24.08;40.00
44313;BME280;38833;51.142;-0.974;2023-08-17T04:54:31;100448.34;;;24.24;40.04
44313;BME280;38833;51.142;-0.974;2023-08-17T04:57:05;100455.78;;;24.08;40.00
44313;BME280;38833;51.142;-0.974;2023-08-17T04:59:38;100453.98;;;23.79;40.13
44313;BME280;38833;51.142;-0.974;2023-08-17T05:02:11;100453.19;;;23.85;40.08
44313;BME280;38833;51.142;-0.974;2023-08-17T05:04:46;100454.09;;;23.71;40.30
44313;BME280;38833;51.142;-0.974;2023-08-17T05:07:20;100455.58;;;24.09;40.03
44313;BME280;38833;51.142;-0.974;2023-08-17T05:09:53;100456.42;;;23.69;40.35
44313;BME280;38833;51.142;-0.974;2023-08-17T05:12:26;100454.70;;;23.79;40.21
44313;BME280;38833;51.142;-0.974;2023-08-17T05:15:00;100452.06;;;23.82;40.20
44313;BME280;38833;51.142;-0.974;2023-08-17T05:17:33;100453.04;;;23.73;40.34
44313;BME280;38833;51.142;-0.974;2023-08-17T05:20:08;100456.53;;;23.72;40.39
44313;BME280;38833;51.142;-0.974;2023-08-17T05:22:41;100455.35;;;23.98;40.29
44313;BME280;38833;51.142;-0.974;2023-08-17T05:25:14;100460.07;;;23.74;40.42
44313;BME280;38833;51.142;-0.974;2023-08-17T05:27:48;100466.72;;;24.07;40.18
44313;BME280;38833;51.142;-0.974;2023-08-17T05:30:21;100464.68;;;23.74;40.39
44313;BME280;38833;51.142;-0.974;2023-08-17T05:32:55;100463.54;;;23.74;40.38
44313;BME280;38833;51.142;-0.974;2023-08-17T05:35:28;100462.99;;;23.66;40.53
44313;BME280;38833;51.142;-0.974;2023-08-17T05:38:01;100465.41;;;24.04;40.68
44313;BME280;38833;51.142;-0.974;2023-08-17T05:40:35;100465.90;;;23.81;40.35
44313;BME280;38833;51.142;-0.974;2023-08-17T05:43:09;100468.44;;;24.28;40.35
44313;BME280;38833;51.142;-0.974;2023-08-17T05:45:43;100469.05;;;23.95;40.82
44313;BME280;38833;51.142;-0.974;2023-08-17T05:48:19;100472.01;;;23.58;40.77
44313;BME280;38833;51.142;-0.974;2023-08-17T05:50:52;100475.41;;;23.88;40.69
44313;BME280;38833;51.142;-0.974;2023-08-17T05:53:28;100474.21;;;24.19;40.55
44313;BME280;38833;51.142;-0.974;2023-08-17T05:56:02;100473.27;;;24.39;40.25
44313;BME280;38833;51.142;-0.974;2023-08-17T05:58:35;100469.34;;;23.85;40.38
44313;BME280;38833;51.142;-0.974;2023-08-17T06:01:10;100471.42;;;24.14;40.71
44313;BME280;38833;51.142;-0.974;2023-08-17T06:03:43;100474.87;;;23.69;40.76
44313;BME280;38833;51.142;-0.974;2023-08-17T06:06:17;100478.02;;;23.99;40.67
44313;BME280;38833;51.142;-0.974;2023-08-17T06:08:50;100479.29;;;23.66;40.80
44313;BME280;38833;51.142;-0.974;2023-08-17T06:11:23;100476.66;;;23.94;40.75
44313;BME280;38833;51.142;-0.974;2023-08-17T06:13:57;100475.69;;;23.89;40.46
44313;BME280;38833;51.142;-0.974;2023-08-17T06:16:30;100469.76;;;23.78;40.69
44313;BME280;38833;51.142;-0.974;2023-08-17T06:19:04;100468.12;;;24.18;40.74
44313;BME280;38833;51.142;-0.974;2023-08-17T06:21:37;100469.46;;;23.76;40.75
44313;BME280;38833;51.142;-0.974;2023-08-17T06:24:11;100470.35;;;23.75;40.82
44313;BME280;38833;51.142;-0.974;2023-08-17T06:26:44;100471.35;;;24.04;40.73
44313;BME280;38833;51.142;-0.974;2023-08-17T06:29:18;100473.44;;;23.90;40.62
44313;BME280;38833;51.142;-0.974;2023-08-17T06:31:52;100471.04;;;24.10;40.69
44313;BME280;38833;51.142;-0.974;2023-08-17T06:34:25;100466.78;;;24.04;40.82
44313;BME280;38833;51.142;-0.974;2023-08-17T06:36:59;100471.58;;;24.22;40.60
44313;BME280;38833;51.142;-0.974;2023-08-17T06:39:33;100472.12;;;24.15;40.69
44313;BME280;38833;51.142;-0.974;2023-08-17T06:42:06;100474.22;;;24.02;40.60
44313;BME280;38833;51.142;-0.974;2023-08-17T06:44:39;100477.56;;;24.20;40.71
44313;BME280;38833;51.142;-0.974;2023-08-17T06:47:13;100478.99;;;24.45;40.72
44313;BME280;38833;51.142;-0.974;2023-08-17T06:49:46;100476.18;;;24.00;41.08
44313;BME280;38833;51.142;-0.974;2023-08-17T06:52:20;100475.91;;;24.28;41.04
44313;BME280;38833;51.142;-0.974;2023-08-17T06:54:53;100476.67;;;24.12;40.63
44313;BME280;38833;51.142;-0.974;2023-08-17T06:57:26;100476.24;;;24.38;40.93
44313;BME280;38833;51.142;-0.974;2023-08-17T07:00:00;100479.02;;;24.15;40.70
44313;BME280;38833;51.142;-0.974;2023-08-17T07:02:34;100476.03;;;24.33;40.79
44313;BME280;38833;51.142;-0.974;2023-08-17T07:05:07;100475.74;;;24.36;40.74
44313;BME280;38833;51.142;-0.974;2023-08-17T07:07:40;100475.01;;;24.39;40.80
44313;BME280;38833;51.142;-0.974;2023-08-17T07:10:14;100473.16;;;24.16;41.21
44313;BME280;38833;51.142;-0.974;2023-08-17T07:12:47;100470.22;;;23.95;41.15
44313;BME280;38833;51.142;-0.974;2023-08-17T07:15:21;100469.68;;;24.23;40.74
44313;BME280;38833;51.142;-0.974;2023-08-17T07:17:54;100466.10;;;23.68;40.99
44313;BME280;38833;51.142;-0.974;2023-08-17T07:20:28;100464.70;;;23.91;41.18
44313;BME280;38833;51.142;-0.974;2023-08-17T07:23:01;100459.85;;;24.34;40.50
44313;BME280;38833;51.142;-0.974;2023-08-17T07:25:34;100461.49;;;23.99;41.18
44313;BME280;38833;51.142;-0.974;2023-08-17T07:28:08;100457.82;;;23.95;41.41
44313;BME280;38833;51.142;-0.974;2023-08-17T07:30:41;100454.02;;;23.95;41.41
44313;BME280;38833;51.142;-0.974;2023-08-17T07:33:15;100448.01;;;24.10;41.56
44313;BME280;38833;51.142;-0.974;2023-08-17T07:35:48;100449.76;;;24.06;41.71
44313;BME280;38833;51.142;-0.974;2023-08-17T07:38:22;100451.16;;;24.05;41.34
44313;BME280;38833;51.142;-0.974;2023-08-17T07:40:55;100449.69;;;24.75;40.21
44313;BME280;38833;51.142;-0.974;2023-08-17T07:43:29;100446.29;;;24.59;40.30
44313;BME280;38833;51.142;-0.974;2023-08-17T07:46:02;100441.72;;;24.97;39.59
44313;BME280;38833;51.142;-0.974;2023-08-17T07:48:35;100443.60;;;26.31;37.31
44313;BME280;38833;51.142;-0.974;2023-08-17T07:51:09;100440.00;;;26.50;36.34
44313;BME280;38833;51.142;-0.974;2023-08-17T07:53:42;100440.35;;;26.24;36.84
44313;BME280;38833;51.142;-0.974;2023-08-17T07:56:16;100437.71;;;25.78;37.79
44313;BME280;38833;51.142;-0.974;2023-08-17T07:58:49;100429.32;;;25.23;38.78
44313;BME280;38833;51.142;-0.974;2023-08-17T08:01:23;100427.93;;;25.10;39.33
44313;BME280;38833;51.142;-0.974;2023-08-17T08:03:56;100425.59;;;25.44;39.40
44313;BME280;38833;51.142;-0.974;2023-08-17T08:06:30;100424.50;;;24.94;39.83
44313;BME280;38833;51.142;-0.974;2023-08-17T08:09:03;100422.90;;;25.06;40.00
44313;BME280;38833;51.142;-0.974;2023-08-17T08:11:37;100428.77;;;24.60;40.29
44313;BME280;38833;51.142;-0.974;2023-08-17T08:14:10;100430.89;;;24.65;39.95
44313;BME280;38833;51.142;-0.974;2023-08-17T08:16:44;100434.87;;;25.29;39.84
44313;BME280;38833;51.142;-0.974;2023-08-17T08:19:17;100435.30;;;25.06;40.20
44313;BME280;38833;51.142;-0.974;2023-08-17T08:21:51;100435.34;;;24.47;41.14
44313;BME280;38833;51.142;-0.974;2023-08-17T08:24:24;100441.41;;;24.64;40.82
44313;BME280;38833;51.142;-0.974;2023-08-17T08:26:58;100438.97;;;24.05;41.95
44313;BME280;38833;51.142;-0.974;2023-08-17T08:29:31;100444.40;;;24.84;41.01
44313;BME280;38833;51.142;-0.974;2023-08-17T08:32:04;100445.14;;;24.72;40.95
44313;BME280;38833;51.142;-0.974;2023-08-17T08:34:38;100440.24;;;24.38;41.58
44313;BME280;38833;51.142;-0.974;2023-08-17T08:37:12;100439.74;;;24.64;41.72
44313;BME280;38833;51.142;-0.974;2023-08-17T08:39:49;100443.43;;;25.13;40.67
44313;BME280;38833;51.142;-0.974;2023-08-17T08:42:23;100444.62;;;25.35;40.40
44313;BME280;38833;51.142;-0.974;2023-08-17T08:44:57;100444.03;;;25.39;40.32
44313;BME280;38833;51.142;-0.974;2023-08-17T08:47:33;100443.42;;;25.42;40.32
44313;BME280;38833;51.142;-0.974;2023-08-17T08:50:08;100442.59;;;24.99;40.97
44313;BME280;38833;51.142;-0.974;2023-08-17T08:52:44;100445.37;;;25.30;40.23
44313;BME280;38833;51.142;-0.974;2023-08-17T08:55:23;100436.60;;;25.12;40.13
44313;BME280;38833;51.142;-0.974;2023-08-17T08:57:59;100438.09;;;25.63;40.18
44313;BME280;38833;51.142;-0.974;2023-08-17T09:00:34;100439.61;;;25.09;40.44
44313;BME280;38833;51.142;-0.974;2023-08-17T09:03:09;100443.73;;;25.25;40.07
44313;BME280;38833;51.142;-0.974;2023-08-17T09:05:45;100444.30;;;25.36;39.98
44313;BME280;38833;51.142;-0.974;2023-08-17T09:08:21;100441.18;;;25.79;40.10
44313;BME280;38833;51.142;-0.974;2023-08-17T09:10:55;100442.95;;;25.38;40.08
44313;BME280;38833;51.142;-0.974;2023-08-17T09:13:29;100439.94;;;25.70;40.40
44313;BME280;38833;51.142;-0.974;2023-08-17T09:16:02;100438.09;;;25.38;40.28
44313;BME280;38833;51.142;-0.974;2023-08-17T09:18:36;100435.24;;;25.41;40.52
44313;BME280;38833;51.142;-0.974;2023-08-17T09:21:20;100432.39;;;24.97;40.91
44313;BME280;38833;51.142;-0.974;2023-08-17T09:23:54;100429.36;;;24.74;41.30
44313;BME280;38833;51.142;-0.974;2023-08-17T09:26:31;100434.05;;;25.21;40.77
44313;BME280;38833;51.142;-0.974;2023-08-17T09:29:17;100429.36;;;25.50;40.77
44313;BME280;38833;51.142;-0.974;2023-08-17T09:31:51;100426.35;;;25.43;40.68
44313;BME280;38833;51.142;-0.974;2023-08-17T09:34:25;100423.70;;;25.31;41.31
44313;BME280;38833;51.142;-0.974;2023-08-17T09:37:02;100423.52;;;24.99;41.22
44313;BME280;38833;51.142;-0.974;2023-08-17T09:39:37;100423.69;;;25.43;40.92
44313;BME280;38833;51.142;-0.974;2023-08-17T09:42:10;100422.77;;;25.62;40.97
44313;BME280;38833;51.142;-0.974;2023-08-17T09:44:44;100426.57;;;25.36;41.19
44313;BME280;38833;51.142;-0.974;2023-08-17T09:47:18;100423.53;;;25.43;40.73
44313;BME280;38833;51.142;-0.974;2023-08-17T09:49:53;100424.08;;;25.61;41.06
44313;BME280;38833;51.142;-0.974;2023-08-17T09:52:26;100418.10;;;25.16;41.65
44313;BME280;38833;51.142;-0.974;2023-08-17T09:55:00;100414.70;;;25.69;40.65
44313;BME280;38833;51.142;-0.974;2023-08-17T09:57:36;100415.28;;;25.41;41.14
44313;BME280;38833;51.142;-0.974;2023-08-17T10:00:10;100415.48;;;25.38;41.23
44313;BME280;38833;51.142;-0.974;2023-08-17T10:02:45;100417.23;;;25.72;40.63
44313;BME280;38833;51.142;-0.974;2023-08-17T10:05:20;100414.82;;;25.73;40.68
44313;BME280;38833;51.142;-0.974;2023-08-17T10:07:56;100417.72;;;25.26;41.41
44313;BME280;38833;51.142;-0.974;2023-08-17T10:10:32;100417.33;;;25.76;41.01
44313;BME280;38833;51.142;-0.974;2023-08-17T10:13:09;100413.75;;;26.19;40.31
44313;BME280;38833;51.142;-0.974;2023-08-17T10:15:47;100405.85;;;25.74;40.64
44313;BME280;38833;51.142;-0.974;2023-08-17T10:18:31;100398.22;;;25.97;40.35
44313;BME280;38833;51.142;-0.974;2023-08-17T10:21:10;100390.29;;;25.95;40.29
44313;BME280;38833;51.142;-0.974;2023-08-17T10:23:46;100379.78;;;25.96;40.43
44313;BME280;38833;51.142;-0.974;2023-08-17T10:26:20;100375.37;;;25.87;40.38
44313;BME280;38833;51.142;-0.974;2023-08-17T10:28:54;100384.87;;;26.00;40.57
44313;BME280;38833;51.142;-0.974;2023-08-17T10:31:29;100388.19;;;26.11;40.55
44313;BME280;38833;51.142;-0.974;2023-08-17T10:34:02;100389.38;;;26.39;40.10
44313;BME280;38833;51.142;-0.974;2023-08-17T10:36:37;100388.59;;;25.77;40.46
44313;BME280;38833;51.142;-0.974;2023-08-17T10:39:20;100389.09;;;26.10;40.75
44313;BME280;38833;51.142;-0.974;2023-08-17T10:41:55;100390.06;;;25.86;40.66
44313;BME280;38833;51.142;-0.974;2023-08-17T10:44:46;100385.71;;;26.06;40.86
44313;BME280;38833;51.142;-0.974;2023-08-17T10:47:23;100387.49;;;26.25;40.10
44313;BME280;38833;51.142;-0.974;2023-08-17T10:49:58;100387.44;;;26.24;40.69
44313;BME280;38833;51.142;-0.974;2023-08-17T10:52:33;100390.16;;;26.19;40.12
44313;BME280;38833;51.142;-0.974;2023-08-17T10:55:09;100393.85;;;26.10;40.05
44313;BME280;38833;51.142;-0.974;2023-08-17T10:57:43;100398.41;;;26.63;39.85
44313;BME280;38833;51.142;-0.974;2023-08-17T11:00:18;100400.43;;;26.57;39.68
44313;BME280;38833;51.142;-0.974;2023-08-17T11:02:54;100397.22;;;26.33;39.62
44313;BME280;38833;51.142;-0.974;2023-08-17T11:05:36;100404.15;;;26.70;39.42
44313;BME280;38833;51.142;-0.974;2023-08-17T11:08:20;100403.29;;;26.45;39.27
44313;BME280;38833;51.142;-0.974;2023-08-17T11:10:59;100401.59;;;26.78;39.36
44313;BME280;38833;51.142;-0.974;2023-08-17T11:13:34;100402.51;;;26.36;39.62
44313;BME280;38833;51.142;-0.974;2023-08-17T11:16:09;100399.38;;;26.59;39.80
44313;BME280;38833;51.142;-0.974;2023-08-17T11:18:43;100397.16;;;26.70;39.58
44313;BME280;38833;51.142;-0.974;2023-08-17T11:21:16;100395.57;;;26.42;39.69
44313;BME280;38833;51.142;-0.974;2023-08-17T11:23:50;100391.40;;;26.52;39.99
44313;BME280;38833;51.142;-0.974;2023-08-17T11:26:24;100389.92;;;26.25;39.83
44313;BME280;38833;51.142;-0.974;2023-08-17T11:28:57;100387.87;;;25.89;40.52
44313;BME280;38833;51.142;-0.974;2023-08-17T11:31:32;100391.52;;;26.17;40.14
44313;BME280;38833;51.142;-0.974;2023-08-17T11:34:05;100388.84;;;26.61;39.51
44313;BME280;38833;51.142;-0.974;2023-08-17T11:36:39;100390.63;;;26.32;39.90
44313;BME280;38833;51.142;-0.974;2023-08-17T11:39:13;100387.25;;;26.52;39.51
44313;BME280;38833;51.142;-0.974;2023-08-17T11:41:46;100386.74;;;26.14;40.19
44313;BME280;38833;51.142;-0.974;2023-08-17T11:44:20;100389.59;;;26.17;40.16
44313;BME280;38833;51.142;-0.974;2023-08-17T11:46:54;100389.68;;;26.45;39.75
44313;BME280;38833;51.142;-0.974;2023-08-17T11:49:30;100384.42;;;26.71;39.17
44313;BME280;38833;51.142;-0.974;2023-08-17T11:52:04;100376.22;;;26.90;38.85
44313;BME280;38833;51.142;-0.974;2023-08-17T11:54:40;100376.44;;;26.50;39.18
44313;BME280;38833;51.142;-0.974;2023-08-17T11:57:14;100372.73;;;26.30;39.84
44313;BME280;38833;51.142;-0.974;2023-08-17T11:59:48;100367.15;;;25.92;40.43
44313;BME280;38833;51.142;-0.974;2023-08-17T12:02:23;100360.66;;;25.93;40.40
44313;BME280;38833;51.142;-0.974;2023-08-17T12:04:57;100359.86;;;26.74;39.05
44313;BME280;38833;51.142;-0.974;2023-08-17T12:07:32;100363.34;;;26.80;38.88
44313;BME280;38833;51.142;-0.974;2023-08-17T12:10:07;100362.02;;;26.73;39.08
44313;BME280;38833;51.142;-0.974;2023-08-17T12:12:40;100364.69;;;26.49;39.03
44313;BME280;38833;51.142;-0.974;2023-08-17T12:15:16;100365.36;;;26.37;39.34
44313;BME280;38833;51.142;-0.974;2023-08-17T12:17:50;100361.40;;;26.15;40.20
44313;BME280;38833;51.142;-0.974;2023-08-17T12:20:24;100360.41;;;25.82;40.69
44313;BME280;38833;51.142;-0.974;2023-08-17T12:22:58;100356.82;;;26.22;39.96
44313;BME280;38833;51.142;-0.974;2023-08-17T12:25:32;100351.31;;;26.23;39.99
44313;BME280;38833;51.142;-0.974;2023-08-17T12:28:06;100347.60;;;26.14;39.24
44313;BME280;38833;51.142;-0.974;2023-08-17T12:30:39;100347.61;;;26.77;38.98
44313;BME280;38833;51.142;-0.974;2023-08-17T12:33:13;100346.03;;;26.62;39.50
44313;BME280;38833;51.142;-0.974;2023-08-17T12:35:46;100345.36;;;26.30;39.50
44313;BME280;38833;51.142;-0.974;2023-08-17T12:38:21;100344.42;;;26.97;38.96
44313;BME280;38833;51.142;-0.974;2023-08-17T12:40:55;100339.12;;;26.96;38.88
44313;BME280;38833;51.142;-0.974;2023-08-17T12:43:28;100333.66;;;26.80;39.37
44313;BME280;38833;51.142;-0.974;2023-08-17T12:46:02;100338.86;;;26.24;39.99
44313;BME280;38833;51.142;-0.974;2023-08-17T12:48:36;100331.66;;;26.43;39.51
44313;BME280;38833;51.142;-0.974;2023-08-17T12:51:10;100335.19;;;26.59;39.64
44313;BME280;38833;51.142;-0.974;2023-08-17T12:53:43;100327.04;;;26.44;39.76
44313;BME280;38833;51.142;-0.974;2023-08-17T12:56:17;100329.11;;;26.48;39.98
44313;BME280;38833;51.142;-0.974;2023-08-17T12:58:51;100325.14;;;26.82;39.37
44313;BME280;38833;51.142;-0.974;2023-08-17T13:01:24;100325.00;;;26.59;40.04
44313;BME280;38833;51.142;-0.974;2023-08-17T13:03:58;100328.15;;;26.58;39.74
44313;BME280;38833;51.142;-0.974;2023-08-17T13:06:31;100327.86;;;26.46;39.66
44313;BME280;38833;51.142;-0.974;2023-08-17T13:09:05;100326.16;;;26.41;40.06
44313;BME280;38833;51.142;-0.974;2023-08-17T13:11:38;100329.79;;;26.85;39.38
44313;BME280;38833;51.142;-0.974;2023-08-17T13:14:14;100319.92;;;26.22;40.07
44313;BME280;38833;51.142;-0.974;2023-08-17T13:16:47;100314.11;;;26.65;39.61